sensor_id;sensor_type;location;lat;lon;timestamp;temperature;humidity
10083;DHT22;5080;48.528;8.078;2023-07-24T00:01:51;20.70;99.90
10083;DHT22;5080;48.528;8.078;2023-07-24T00:04:17;20.70;99.90
10083;DHT22;5080;48.528;8.078;2023-07-24T00:06:44;20.70;99.90
10083;DHT22;5080;48.528;8.078;2023-07-24T00:09:11;20.70;99.90
10083;DHT22;5080;48.528;8.078;2023-07-24T00:11:38;20.60;99.90
10083;DHT22;5080;48.528;8.078;2023-07-24T00:14:05;20.60;99.90
10083;DHT22;5080;48.528;8.078;2023-07-24T00:16:33;20.70;99.90
10083;DHT22;5080;48.528;8.078;2023-07-24T00:19:00;20.70;99.90
10083;DHT22;5080;48.528;8.078;2023-07-24T00:21:27;20.70;99.90
10083;DHT22;5080;48.528;8.078;2023-07-24T00:23:54;20.60;99.90
10083;DHT22;5080;48.528;8.078;2023-07-24T00:26:21;20.60;99.90
10083;DHT22;5080;48.528;8.078;2023-07-24T00:28:48;20.50;99.90
10083;DHT22;5080;48.528;8.078;2023-07-24T00:31:14;20.50;99.90
10083;DHT22;5080;48.528;8.078;2023-07-24T00:33:43;20.50;99.90
10083;DHT22;5080;48.528;8.078;2023-07-24T00:36:10;20.50;99.90
10083;DHT22;5080;48.528;8.078;2023-07-24T00:38:36;20.50;99.90
10083;DHT22;5080;48.528;8.078;2023-07-24T00:41:03;20.60;99.90
10083;DHT22;5080;48.528;8.078;2023-07-24T00:43:30;20.60;99.90
10083;DHT22;5080;48.528;8.078;2023-07-24T00:45:57;20.50;99.90
10083;DHT22;5080;48.528;8.078;2023-07-24T00:48:24;20.40;99.90
10083;DHT22;5080;48.528;8.078;2023-07-24T00:50:53;20.40;99.90
10083;DHT22;5080;48.528;8.078;2023-07-24T00:53:21;20.30;99.90
10083;DHT22;5080;48.528;8.078;2023-07-24T00:55:48;20.20;99.90
10083;DHT22;5080;48.528;8.078;2023-07-24T00:58:16;20.10;99.90
10083;DHT22;5080;48.528;8.078;2023-07-24T01:00:44;20.10;99.90
10083;DHT22;5080;48.528;8.078;2023-07-24T01:03:11;20.00;99.90
10083;DHT22;5080;48.528;8.078;2023-07-24T01:05:38;20.00;99.90
10083;DHT22;5080;48.528;8.078;2023-07-24T01:08:08;20.00;99.90
10083;DHT22;5080;48.528;8.078;2023-07-24T01:10:35;20.00;99.90
10083;DHT22;5080;48.528;8.078;2023-07-24T01:13:05;20.00;99.90
10083;DHT22;5080;48.528;8.078;2023-07-24T01:15:35;20.00;99.90
10083;DHT22;5080;48.528;8.078;2023-07-24T01:18:08;20.00;99.90
10083;DHT22;5080;48.528;8.078;2023-07-24T01:20:37;20.00;99.90
10083;DHT22;5080;48.528;8.078;2023-07-24T01:23:23;19.90;99.90
10083;DHT22;5080;48.528;8.078;2023-07-24T01:25:59;19.80;99.90
10083;DHT22;5080;48.528;8.078;2023-07-24T01:28:26;19.80;99.90
10083;DHT22;5080;48.528;8.078;2023-07-24T01:30:53;19.80;99.90
10083;DHT22;5080;48.528;8.078;2023-07-24T01:33:20;19.80;99.90
10083;DHT22;5080;48.528;8.078;2023-07-24T01:35:49;19.90;99.90
10083;DHT22;5080;48.528;8.078;2023-07-24T01:38:17;19.90;99.90
10083;DHT22;5080;48.528;8.078;2023-07-24T01:40:45;19.90;99.90
10083;DHT22;5080;48.528;8.078;2023-07-24T01:43:14;19.90;99.90
10083;DHT22;5080;48.528;8.078;2023-07-24T01:45:41;19.90;99.90
10083;DHT22;5080;48.528;8.078;2023-07-24T01:48:08;20.00;99.90
10083;DHT22;5080;48.528;8.078;2023-07-24T01:50:35;19.90;99.90
10083;DHT22;5080;48.528;8.078;2023-07-24T01:53:01;19.90;99.90
10083;DHT22;5080;48.528;8.078;2023-07-24T01:55:28;19.90;99.90
10083;DHT22;5080;48.528;8.078;2023-07-24T01:57:55;19.80;99.90
10083;DHT22;5080;48.528;8.078;2023-07-24T02:00:23;19.80;99.90
10083;DHT22;5080;48.528;8.078;2023-07-24T02:02:50;19.80;99.90
10083;DHT22;5080;48.528;8.078;2023-07-24T02:05:17;19.80;99.90
10083;DHT22;5080;48.528;8.078;2023-07-24T02:07:44;19.80;99.90
10083;DHT22;5080;48.528;8.078;2023-07-24T02:10:11;19.70;99.90
10083;DHT22;5080;48.528;8.078;2023-07-24T02:12:38;19.60;99.90
10083;DHT22;5080;48.528;8.078;2023-07-24T02:15:06;19.50;99.90
10083;DHT22;5080;48.528;8.078;2023-07-24T02:17:34;19.40;99.90
10083;DHT22;5080;48.528;8.078;2023-07-24T02:20:01;19.40;99.90
10083;DHT22;5080;48.528;8.078;2023-07-24T02:22:28;19.30;99.90
10083;DHT22;5080;48.528;8.078;2023-07-24T02:24:55;19.30;99.90
10083;DHT22;5080;48.528;8.078;2023-07-24T02:27:26;19.30;99.90
10083;DHT22;5080;48.528;8.078;2023-07-24T02:29:53;19.30;99.90
10083;DHT22;5080;48.528;8.078;2023-07-24T02:32:20;19.30;99.90
10083;DHT22;5080;48.528;8.078;2023-07-24T02:34:50;19.30;99.90
10083;DHT22;5080;48.528;8.078;2023-07-24T02:37:17;19.30;99.90
10083;DHT22;5080;48.528;8.078;2023-07-24T02:39:45;19.40;99.90
10083;DHT22;5080;48.528;8.078;2023-07-24T02:42:12;19.40;99.90
10083;DHT22;5080;48.528;8.078;2023-07-24T02:44:38;19.30;99.90
10083;DHT22;5080;48.528;8.078;2023-07-24T02:47:05;19.40;99.90
10083;DHT22;5080;48.528;8.078;2023-07-24T02:49:33;19.50;99.90
10083;DHT22;5080;48.528;8.078;2023-07-24T02:52:01;19.40;99.90
10083;DHT22;5080;48.528;8.078;2023-07-24T02:54:28;19.30;99.90
10083;DHT22;5080;48.528;8.078;2023-07-24T02:56:54;19.30;99.90
10083;DHT22;5080;48.528;8.078;2023-07-24T02:59:21;19.30;99.90
10083;DHT22;5080;48.528;8.078;2023-07-24T03:01:48;19.20;99.90
10083;DHT22;5080;48.528;8.078;2023-07-24T03:04:15;19.20;99.90
10083;DHT22;5080;48.528;8.078;2023-07-24T03:06:43;19.10;99.90
10083;DHT22;5080;48.528;8.078;2023-07-24T03:09:11;19.20;99.90
10083;DHT22;5080;48.528;8.078;2023-07-24T03:11:38;19.10;99.90
10083;DHT22;5080;48.528;8.078;2023-07-24T03:14:04;19.20;99.90
10083;DHT22;5080;48.528;8.078;2023-07-24T03:16:31;19.20;99.90
10083;DHT22;5080;48.528;8.078;2023-07-24T03:18:58;19.20;99.90
10083;DHT22;5080;48.528;8.078;2023-07-24T03:21:25;19.20;99.90
10083;DHT22;5080;48.528;8.078;2023-07-24T03:23:52;19.30;99.90
10083;DHT22;5080;48.528;8.078;2023-07-24T03:26:20;19.40;99.90
10083;DHT22;5080;48.528;8.078;2023-07-24T03:28:47;19.40;99.90
10083;DHT22;5080;48.528;8.078;2023-07-24T03:31:13;19.50;99.90
10083;DHT22;5080;48.528;8.078;2023-07-24T03:33:40;19.50;99.90
10083;DHT22;5080;48.528;8.078;2023-07-24T03:36:07;19.50;99.90
10083;DHT22;5080;48.528;8.078;2023-07-24T03:38:34;19.50;99.90
10083;DHT22;5080;48.528;8.078;2023-07-24T03:41:01;19.50;99.90
10083;DHT22;5080;48.528;8.078;2023-07-24T03:43:29;19.60;99.90
10083;DHT22;5080;48.528;8.078;2023-07-24T03:45:56;19.50;99.90
10083;DHT22;5080;48.528;8.078;2023-07-24T03:48:23;19.60;99.90
10083;DHT22;5080;48.528;8.078;2023-07-24T03:50:49;19.50;99.90
10083;DHT22;5080;48.528;8.078;2023-07-24T03:53:17;19.50;99.90
10083;DHT22;5080;48.528;8.078;2023-07-24T03:55:43;19.50;99.90
10083;DHT22;5080;48.528;8.078;2023-07-24T03:58:11;19.50;99.90
10083;DHT22;5080;48.528;8.078;2023-07-24T04:00:39;19.50;99.90
10083;DHT22;5080;48.528;8.078;2023-07-24T04:03:06;19.50;99.90
10083;DHT22;5080;48.528;8.078;2023-07-24T04:05:34;19.50;99.90
10083;DHT22;5080;48.528;8.078;2023-07-24T04:08:01;19.50;99.90
10083;DHT22;5080;48.528;8.078;2023-07-24T04:10:29;19.40;99.90
10083;DHT22;5080;48.528;8.078;2023-07-24T04:12:56;19.30;99.90
10083;DHT22;5080;48.528;8.078;2023-07-24T04:15:23;19.30;99.90
10083;DHT22;5080;48.528;8.078;2023-07-24T04:17:51;19.40;99.90
10083;DHT22;5080;48.528;8.078;2023-07-24T04:20:18;19.40;99.90
10083;DHT22;5080;48.528;8.078;2023-07-24T04:22:45;19.40;99.90
10083;DHT22;5080;48.528;8.078;2023-07-24T04:25:12;19.40;99.90
10083;DHT22;5080;48.528;8.078;2023-07-24T04:27:39;19.40;99.90
10083;DHT22;5080;48.528;8.078;2023-07-24T04:30:07;19.30;99.90
10083;DHT22;5080;48.528;8.078;2023-07-24T04:32:33;19.30;99.90
10083;DHT22;5080;48.528;8.078;2023-07-24T04:35:02;19.20;99.90
10083;DHT22;5080;48.528;8.078;2023-07-24T04:37:29;19.20;99.90
10083;DHT22;5080;48.528;8.078;2023-07-24T04:39:56;19.30;99.90
10083;DHT22;5080;48.528;8.078;2023-07-24T04:42:23;19.30;99.90
10083;DHT22;5080;48.528;8.078;2023-07-24T04:44:49;19.40;99.90
10083;DHT22;5080;48.528;8.078;2023-07-24T04:47:17;19.50;99.90
10083;DHT22;5080;48.528;8.078;2023-07-24T04:49:44;19.60;99.90
10083;DHT22;5080;48.528;8.078;2023-07-24T04:52:12;19.60;99.90
10083;DHT22;5080;48.528;8.078;2023-07-24T04:54:39;19.50;99.90
10083;DHT22;5080;48.528;8.078;2023-07-24T04:57:06;19.50;99.90
10083;DHT22;5080;48.528;8.078;2023-07-24T04:59:32;19.40;99.90
10083;DHT22;5080;48.528;8.078;2023-07-24T05:01:59;19.30;99.90
10083;DHT22;5080;48.528;8.078;2023-07-24T05:04:26;19.40;99.90
10083;DHT22;5080;48.528;8.078;2023-07-24T05:06:53;19.50;99.90
10083;DHT22;5080;48.528;8.078;2023-07-24T05:09:21;19.60;99.90
10083;DHT22;5080;48.528;8.078;2023-07-24T05:11:48;19.70;99.90
10083;DHT22;5080;48.528;8.078;2023-07-24T05:14:15;19.80;99.90
10083;DHT22;5080;48.528;8.078;2023-07-24T05:16:41;19.90;99.90
10083;DHT22;5080;48.528;8.078;2023-07-24T05:19:08;19.90;99.90
10083;DHT22;5080;48.528;8.078;2023-07-24T05:21:35;20.00;99.90
10083;DHT22;5080;48.528;8.078;2023-07-24T05:24:02;20.10;99.90
10083;DHT22;5080;48.528;8.078;2023-07-24T05:26:30;20.20;99.90
10083;DHT22;5080;48.528;8.078;2023-07-24T05:28:58;20.20;99.90
10083;DHT22;5080;48.528;8.078;2023-07-24T05:31:25;20.20;99.90
10083;DHT22;5080;48.528;8.078;2023-07-24T05:33:52;20.20;99.90
10083;DHT22;5080;48.528;8.078;2023-07-24T05:36:19;20.20;99.90
10083;DHT22;5080;48.528;8.078;2023-07-24T05:38:45;20.10;99.90
10083;DHT22;5080;48.528;8.078;2023-07-24T05:41:12;20.10;99.90
10083;DHT22;5080;48.528;8.078;2023-07-24T05:43:40;20.10;99.90
10083;DHT22;5080;48.528;8.078;2023-07-24T05:46:07;20.10;99.90
10083;DHT22;5080;48.528;8.078;2023-07-24T05:48:34;20.20;99.90
10083;DHT22;5080;48.528;8.078;2023-07-24T05:51:01;20.30;99.90
10083;DHT22;5080;48.528;8.078;2023-07-24T05:53:28;20.30;99.90
10083;DHT22;5080;48.528;8.078;2023-07-24T05:55:58;20.30;99.90
10083;DHT22;5080;48.528;8.078;2023-07-24T05:58:26;20.40;99.90
10083;DHT22;5080;48.528;8.078;2023-07-24T06:00:54;20.40;99.90
10083;DHT22;5080;48.528;8.078;2023-07-24T06:03:21;20.40;99.90
10083;DHT22;5080;48.528;8.078;2023-07-24T06:05:51;20.40;99.90
10083;DHT22;5080;48.528;8.078;2023-07-24T06:08:18;20.50;99.90
10083;DHT22;5080;48.528;8.078;2023-07-24T06:10:46;20.50;99.90
10083;DHT22;5080;48.528;8.078;2023-07-24T06:13:14;20.60;99.90
10083;DHT22;5080;48.528;8.078;2023-07-24T06:15:41;20.60;99.90
10083;DHT22;5080;48.528;8.078;2023-07-24T06:18:09;20.60;99.90
10083;DHT22;5080;48.528;8.078;2023-07-24T06:20:36;20.70;99.90
10083;DHT22;5080;48.528;8.078;2023-07-24T06:23:03;20.70;99.90
10083;DHT22;5080;48.528;8.078;2023-07-24T06:25:30;20.80;99.90
10083;DHT22;5080;48.528;8.078;2023-07-24T06:27:58;20.90;99.90
10083;DHT22;5080;48.528;8.078;2023-07-24T06:30:25;20.90;99.90
10083;DHT22;5080;48.528;8.078;2023-07-24T06:32:52;21.00;99.90
10083;DHT22;5080;48.528;8.078;2023-07-24T06:35:20;21.10;99.90
10083;DHT22;5080;48.528;8.078;2023-07-24T06:37:47;21.20;99.90
10083;DHT22;5080;48.528;8.078;2023-07-24T06:40:14;21.20;99.90
10083;DHT22;5080;48.528;8.078;2023-07-24T06:42:41;21.20;99.90
10083;DHT22;5080;48.528;8.078;2023-07-24T06:45:08;21.20;99.90
10083;DHT22;5080;48.528;8.078;2023-07-24T06:47:35;21.30;99.90
10083;DHT22;5080;48.528;8.078;2023-07-24T06:50:02;21.30;99.90
10083;DHT22;5080;48.528;8.078;2023-07-24T06:52:31;21.40;99.90
10083;DHT22;5080;48.528;8.078;2023-07-24T06:54:58;21.40;99.90
10083;DHT22;5080;48.528;8.078;2023-07-24T06:57:25;21.30;99.90
10083;DHT22;5080;48.528;8.078;2023-07-24T06:59:52;21.20;99.90
10083;DHT22;5080;48.528;8.078;2023-07-24T07:02:19;21.10;99.90
10083;DHT22;5080;48.528;8.078;2023-07-24T07:04:45;21.00;99.90
10083;DHT22;5080;48.528;8.078;2023-07-24T07:07:12;21.00;99.90
10083;DHT22;5080;48.528;8.078;2023-07-24T07:09:40;21.20;99.90
10083;DHT22;5080;48.528;8.078;2023-07-24T07:12:08;21.20;99.90
10083;DHT22;5080;48.528;8.078;2023-07-24T07:14:35;21.20;99.90
10083;DHT22;5080;48.528;8.078;2023-07-24T07:17:02;21.40;99.90
10083;DHT22;5080;48.528;8.078;2023-07-24T07:19:28;21.10;99.90
10083;DHT22;5080;48.528;8.078;2023-07-24T07:21:55;21.10;99.90
10083;DHT22;5080;48.528;8.078;2023-07-24T07:24:22;21.00;99.90
10083;DHT22;5080;48.528;8.078;2023-07-24T07:26:50;20.80;99.90
10083;DHT22;5080;48.528;8.078;2023-07-24T07:29:17;20.70;99.90
10083;DHT22;5080;48.528;8.078;2023-07-24T07:31:44;20.60;99.90
10083;DHT22;5080;48.528;8.078;2023-07-24T07:34:11;20.50;99.90
10083;DHT22;5080;48.528;8.078;2023-07-24T07:36:37;20.40;99.90
10083;DHT22;5080;48.528;8.078;2023-07-24T07:39:04;20.30;99.90
10083;DHT22;5080;48.528;8.078;2023-07-24T07:41:31;20.30;99.90
10083;DHT22;5080;48.528;8.078;2023-07-24T07:43:59;20.30;99.90
10083;DHT22;5080;48.528;8.078;2023-07-24T07:46:26;20.30;99.90
10083;DHT22;5080;48.528;8.078;2023-07-24T07:48:53;20.30;99.90
10083;DHT22;5080;48.528;8.078;2023-07-24T07:51:20;20.30;99.90
10083;DHT22;5080;48.528;8.078;2023-07-24T07:53:47;20.30;99.90
10083;DHT22;5080;48.528;8.078;2023-07-24T07:56:13;20.30;99.90
10083;DHT22;5080;48.528;8.078;2023-07-24T07:58:40;20.20;99.90
10083;DHT22;5080;48.528;8.078;2023-07-24T08:01:08;20.30;99.90
10083;DHT22;5080;48.528;8.078;2023-07-24T08:03:35;20.40;99.90
10083;DHT22;5080;48.528;8.078;2023-07-24T08:06:02;20.40;99.90
10083;DHT22;5080;48.528;8.078;2023-07-24T08:08:29;20.40;99.90
10083;DHT22;5080;48.528;8.078;2023-07-24T08:10:56;20.50;99.90
10083;DHT22;5080;48.528;8.078;2023-07-24T08:13:23;20.60;99.90
10083;DHT22;5080;48.528;8.078;2023-07-24T08:15:50;20.70;99.90
10083;DHT22;5080;48.528;8.078;2023-07-24T08:18:18;20.70;99.90
10083;DHT22;5080;48.528;8.078;2023-07-24T08:20:45;20.80;99.90
10083;DHT22;5080;48.528;8.078;2023-07-24T08:23:11;20.80;99.90
10083;DHT22;5080;48.528;8.078;2023-07-24T08:25:38;21.00;99.90
10083;DHT22;5080;48.528;8.078;2023-07-24T08:28:05;21.20;99.90
10083;DHT22;5080;48.528;8.078;2023-07-24T08:30:32;21.50;99.90
10083;DHT22;5080;48.528;8.078;2023-07-24T08:33:00;21.80;99.90
10083;DHT22;5080;48.528;8.078;2023-07-24T08:35:28;22.00;99.90
10083;DHT22;5080;48.528;8.078;2023-07-24T08:37:55;22.30;99.90
10083;DHT22;5080;48.528;8.078;2023-07-24T08:40:21;22.50;99.90
10083;DHT22;5080;48.528;8.078;2023-07-24T08:42:49;22.70;99.90
10083;DHT22;5080;48.528;8.078;2023-07-24T08:45:17;22.80;99.90
10083;DHT22;5080;48.528;8.078;2023-07-24T08:47:45;22.90;99.90
10083;DHT22;5080;48.528;8.078;2023-07-24T08:50:12;22.90;99.90
10083;DHT22;5080;48.528;8.078;2023-07-24T08:52:42;22.90;99.90
10083;DHT22;5080;48.528;8.078;2023-07-24T08:55:12;22.90;99.90
10083;DHT22;5080;48.528;8.078;2023-07-24T08:57:39;23.10;99.90
10083;DHT22;5080;48.528;8.078;2023-07-24T09:00:06;23.20;99.90
10083;DHT22;5080;48.528;8.078;2023-07-24T09:02:34;23.20;99.90
10083;DHT22;5080;48.528;8.078;2023-07-24T09:05:01;23.20;99.90
10083;DHT22;5080;48.528;8.078;2023-07-24T09:07:29;23.20;99.90
10083;DHT22;5080;48.528;8.078;2023-07-24T09:09:58;23.20;99.90
10083;DHT22;5080;48.528;8.078;2023-07-24T09:12:24;23.00;99.90
10083;DHT22;5080;48.528;8.078;2023-07-24T09:15:01;23.00;99.90
10083;DHT22;5080;48.528;8.078;2023-07-24T09:17:28;22.80;99.90
10083;DHT22;5080;48.528;8.078;2023-07-24T09:19:56;22.70;99.90
10083;DHT22;5080;48.528;8.078;2023-07-24T09:22:24;22.70;99.90
10083;DHT22;5080;48.528;8.078;2023-07-24T09:24:53;22.50;99.90
10083;DHT22;5080;48.528;8.078;2023-07-24T09:27:25;22.50;99.90
10083;DHT22;5080;48.528;8.078;2023-07-24T09:29:52;22.40;99.90
10083;DHT22;5080;48.528;8.078;2023-07-24T09:32:20;22.30;99.90
10083;DHT22;5080;48.528;8.078;2023-07-24T09:34:47;22.20;99.90
10083;DHT22;5080;48.528;8.078;2023-07-24T09:37:26;22.10;99.90
10083;DHT22;5080;48.528;8.078;2023-07-24T09:39:53;22.00;99.90
10083;DHT22;5080;48.528;8.078;2023-07-24T09:42:29;21.90;99.90
10083;DHT22;5080;48.528;8.078;2023-07-24T09:44:56;21.80;99.90
10083;DHT22;5080;48.528;8.078;2023-07-24T09:47:23;21.80;99.90
10083;DHT22;5080;48.528;8.078;2023-07-24T09:49:51;21.60;99.90
10083;DHT22;5080;48.528;8.078;2023-07-24T09:52:19;21.60;99.90
10083;DHT22;5080;48.528;8.078;2023-07-24T09:54:53;21.60;99.90
10083;DHT22;5080;48.528;8.078;2023-07-24T09:57:21;21.50;99.90
10083;DHT22;5080;48.528;8.078;2023-07-24T09:59:52;21.40;99.90
10083;DHT22;5080;48.528;8.078;2023-07-24T10:02:20;21.30;99.90
10083;DHT22;5080;48.528;8.078;2023-07-24T10:04:47;21.20;99.90
10083;DHT22;5080;48.528;8.078;2023-07-24T10:07:15;21.20;99.90
10083;DHT22;5080;48.528;8.078;2023-07-24T10:09:43;21.10;99.90
10083;DHT22;5080;48.528;8.078;2023-07-24T10:12:10;20.90;99.90
10083;DHT22;5080;48.528;8.078;2023-07-24T10:14:37;20.90;99.90
10083;DHT22;5080;48.528;8.078;2023-07-24T10:17:06;20.80;99.90
10083;DHT22;5080;48.528;8.078;2023-07-24T10:19:36;20.70;99.90
10083;DHT22;5080;48.528;8.078;2023-07-24T10:22:05;20.70;99.90
10083;DHT22;5080;48.528;8.078;2023-07-24T10:24:33;20.60;99.90
10083;DHT22;5080;48.528;8.078;2023-07-24T10:27:02;20.50;99.90
10083;DHT22;5080;48.528;8.078;2023-07-24T10:29:34;20.50;99.90
10083;DHT22;5080;48.528;8.078;2023-07-24T10:32:01;20.40;99.90
10083;DHT22;5080;48.528;8.078;2023-07-24T10:34:37;20.40;99.90
10083;DHT22;5080;48.528;8.078;2023-07-24T10:37:07;20.40;99.90
10083;DHT22;5080;48.528;8.078;2023-07-24T10:39:38;20.30;99.90
10083;DHT22;5080;48.528;8.078;2023-07-24T10:42:07;20.30;99.90
10083;DHT22;5080;48.528;8.078;2023-07-24T10:44:34;20.40;99.90
10083;DHT22;5080;48.528;8.078;2023-07-24T10:47:01;20.40;99.90
10083;DHT22;5080;48.528;8.078;2023-07-24T10:49:28;20.30;99.90
10083;DHT22;5080;48.528;8.078;2023-07-24T10:51:58;20.30;99.90
10083;DHT22;5080;48.528;8.078;2023-07-24T10:54:25;20.40;99.90
10083;DHT22;5080;48.528;8.078;2023-07-24T10:56:58;20.40;99.90
10083;DHT22;5080;48.528;8.078;2023-07-24T10:59:36;20.50;99.90
10083;DHT22;5080;48.528;8.078;2023-07-24T11:02:04;20.70;99.90
10083;DHT22;5080;48.528;8.078;2023-07-24T11:04:31;20.70;99.90
10083;DHT22;5080;48.528;8.078;2023-07-24T11:07:00;20.80;99.90
10083;DHT22;5080;48.528;8.078;2023-07-24T11:09:34;20.80;99.90
10083;DHT22;5080;48.528;8.078;2023-07-24T11:12:09;21.00;99.90
10083;DHT22;5080;48.528;8.078;2023-07-24T11:14:46;21.10;99.90
10083;DHT22;5080;48.528;8.078;2023-07-24T11:17:13;21.20;99.90
10083;DHT22;5080;48.528;8.078;2023-07-24T11:19:40;21.40;99.90
10083;DHT22;5080;48.528;8.078;2023-07-24T11:22:08;21.50;99.90
10083;DHT22;5080;48.528;8.078;2023-07-24T11:24:42;21.50;99.90
10083;DHT22;5080;48.528;8.078;2023-07-24T11:27:12;21.50;99.90
10083;DHT22;5080;48.528;8.078;2023-07-24T11:29:39;21.50;99.90
10083;DHT22;5080;48.528;8.078;2023-07-24T11:32:06;21.50;99.90
10083;DHT22;5080;48.528;8.078;2023-07-24T11:34:33;21.50;99.90
10083;DHT22;5080;48.528;8.078;2023-07-24T11:37:01;21.40;99.90
10083;DHT22;5080;48.528;8.078;2023-07-24T11:39:29;21.50;99.90
10083;DHT22;5080;48.528;8.078;2023-07-24T11:41:57;21.40;99.90
10083;DHT22;5080;48.528;8.078;2023-07-24T11:44:26;21.40;99.90
10083;DHT22;5080;48.528;8.078;2023-07-24T11:47:00;21.40;99.90
10083;DHT22;5080;48.528;8.078;2023-07-24T11:49:28;21.40;99.90
10083;DHT22;5080;48.528;8.078;2023-07-24T11:52:00;21.50;99.90
10083;DHT22;5080;48.528;8.078;2023-07-24T11:54:27;21.50;99.90
10083;DHT22;5080;48.528;8.078;2023-07-24T11:56:55;21.50;99.90
10083;DHT22;5080;48.528;8.078;2023-07-24T11:59:22;21.50;99.90
10083;DHT22;5080;48.528;8.078;2023-07-24T12:01:49;21.60;99.90
10083;DHT22;5080;48.528;8.078;2023-07-24T12:04:15;21.60;99.90
10083;DHT22;5080;48.528;8.078;2023-07-24T12:06:43;21.70;99.90
10083;DHT22;5080;48.528;8.078;2023-07-24T12:09:10;21.60;99.90
10083;DHT22;5080;48.528;8.078;2023-07-24T12:11:41;21.60;99.90
10083;DHT22;5080;48.528;8.078;2023-07-24T12:14:10;21.70;99.90
10083;DHT22;5080;48.528;8.078;2023-07-24T12:16:38;21.60;99.90
10083;DHT22;5080;48.528;8.078;2023-07-24T12:19:05;21.70;99.90
10083;DHT22;5080;48.528;8.078;2023-07-24T12:21:32;21.60;99.90
10083;DHT22;5080;48.528;8.078;2023-07-24T12:23:58;21.60;99.90
10083;DHT22;5080;48.528;8.078;2023-07-24T12:26:25;21.60;99.90
10083;DHT22;5080;48.528;8.078;2023-07-24T12:28:53;21.70;99.90
10083;DHT22;5080;48.528;8.078;2023-07-24T12:31:21;21.70;99.90
10083;DHT22;5080;48.528;8.078;2023-07-24T12:33:48;21.70;99.90
10083;DHT22;5080;48.528;8.078;2023-07-24T12:36:15;21.80;99.90
10083;DHT22;5080;48.528;8.078;2023-07-24T12:38:42;21.80;99.90
10083;DHT22;5080;48.528;8.078;2023-07-24T12:41:09;21.80;99.90
10083;DHT22;5080;48.528;8.078;2023-07-24T12:43:36;22.00;99.90
10083;DHT22;5080;48.528;8.078;2023-07-24T12:46:02;22.00;99.90
10083;DHT22;5080;48.528;8.078;2023-07-24T12:48:30;22.00;99.90
10083;DHT22;5080;48.528;8.078;2023-07-24T12:50:57;22.20;99.90
10083;DHT22;5080;48.528;8.078;2023-07-24T12:53:25;22.40;99.90
10083;DHT22;5080;48.528;8.078;2023-07-24T12:55:52;22.70;99.90
10083;DHT22;5080;48.528;8.078;2023-07-24T12:58:19;23.10;99.90
10083;DHT22;5080;48.528;8.078;2023-07-24T13:00:46;23.40;99.90
10083;DHT22;5080;48.528;8.078;2023-07-24T13:03:13;23.60;99.90
10083;DHT22;5080;48.528;8.078;2023-07-24T13:05:41;23.90;99.90
10083;DHT22;5080;48.528;8.078;2023-07-24T13:08:08;24.20;99.90
10083;DHT22;5080;48.528;8.078;2023-07-24T13:10:35;24.30;99.90
10083;DHT22;5080;48.528;8.078;2023-07-24T13:13:02;24.20;99.90
10083;DHT22;5080;48.528;8.078;2023-07-24T13:15:29;24.10;99.90
10083;DHT22;5080;48.528;8.078;2023-07-24T13:17:57;24.00;99.90
10083;DHT22;5080;48.528;8.078;2023-07-24T13:20:24;23.90;99.90
10083;DHT22;5080;48.528;8.078;2023-07-24T13:22:52;23.90;99.90
10083;DHT22;5080;48.528;8.078;2023-07-24T13:25:19;23.90;99.90
10083;DHT22;5080;48.528;8.078;2023-07-24T13:27:46;23.90;99.90
10083;DHT22;5080;48.528;8.078;2023-07-24T13:30:13;24.00;99.90
10083;DHT22;5080;48.528;8.078;2023-07-24T13:32:40;24.20;99.90
10083;DHT22;5080;48.528;8.078;2023-07-24T13:35:07;24.40;99.90
10083;DHT22;5080;48.528;8.078;2023-07-24T13:37:34;24.50;99.90
10083;DHT22;5080;48.528;8.078;2023-07-24T13:40:03;24.60;99.90
10083;DHT22;5080;48.528;8.078;2023-07-24T13:42:30;24.60;99.90
10083;DHT22;5080;48.528;8.078;2023-07-24T13:44:57;24.70;99.90
10083;DHT22;5080;48.528;8.078;2023-07-24T13:47:23;24.80;99.90
10083;DHT22;5080;48.528;8.078;2023-07-24T13:49:50;24.80;99.90
10083;DHT22;5080;48.528;8.078;2023-07-24T13:52:17;24.70;99.90
10083;DHT22;5080;48.528;8.078;2023-07-24T13:54:44;24.70;99.90
10083;DHT22;5080;48.528;8.078;2023-07-24T13:57:13;24.80;99.90
10083;DHT22;5080;48.528;8.078;2023-07-24T13:59:40;24.80;99.90
10083;DHT22;5080;48.528;8.078;2023-07-24T14:02:06;25.10;99.90
10083;DHT22;5080;48.528;8.078;2023-07-24T14:04:33;25.10;99.90
10083;DHT22;5080;48.528;8.078;2023-07-24T14:07:00;24.90;99.90
10083;DHT22;5080;48.528;8.078;2023-07-24T14:09:27;25.00;99.90
10083;DHT22;5080;48.528;8.078;2023-07-24T14:11:54;25.30;99.90
10083;DHT22;5080;48.528;8.078;2023-07-24T14:14:22;25.40;99.90
10083;DHT22;5080;48.528;8.078;2023-07-24T14:16:50;25.40;99.90
10083;DHT22;5080;48.528;8.078;2023-07-24T14:19:17;25.50;99.90
10083;DHT22;5080;48.528;8.078;2023-07-24T14:21:44;25.50;99.90
10083;DHT22;5080;48.528;8.078;2023-07-24T14:24:11;25.70;99.90
10083;DHT22;5080;48.528;8.078;2023-07-24T14:26:39;25.70;99.90
10083;DHT22;5080;48.528;8.078;2023-07-24T14:29:05;25.70;99.90
10083;DHT22;5080;48.528;8.078;2023-07-24T14:31:34;25.70;99.90
10083;DHT22;5080;48.528;8.078;2023-07-24T14:34:00;25.80;99.90
10083;DHT22;5080;48.528;8.078;2023-07-24T14:36:27;25.80;99.90
10083;DHT22;5080;48.528;8.078;2023-07-24T14:38:59;25.80;99.90
10083;DHT22;5080;48.528;8.078;2023-07-24T14:41:25;25.90;99.90
10083;DHT22;5080;48.528;8.078;2023-07-24T14:43:52;25.70;99.90
10083;DHT22;5080;48.528;8.078;2023-07-24T14:46:19;25.60;99.90
10083;DHT22;5080;48.528;8.078;2023-07-24T14:48:47;25.40;99.90
10083;DHT22;5080;48.528;8.078;2023-07-24T14:51:14;25.50;99.90
10083;DHT22;5080;48.528;8.078;2023-07-24T14:53:41;25.70;99.90
10083;DHT22;5080;48.528;8.078;2023-07-24T14:56:08;25.80;99.90
10083;DHT22;5080;48.528;8.078;2023-07-24T14:58:34;25.90;99.90
10083;DHT22;5080;48.528;8.078;2023-07-24T15:01:01;25.80;99.90
10083;DHT22;5080;48.528;8.078;2023-07-24T15:03:28;25.60;99.90
10083;DHT22;5080;48.528;8.078;2023-07-24T15:05:56;25.40;99.90
10083;DHT22;5080;48.528;8.078;2023-07-24T15:08:29;25.10;99.90
10083;DHT22;5080;48.528;8.078;2023-07-24T15:10:55;25.00;99.90
10083;DHT22;5080;48.528;8.078;2023-07-24T15:13:22;24.90;99.90
10083;DHT22;5080;48.528;8.078;2023-07-24T15:15:49;24.90;99.90
10083;DHT22;5080;48.528;8.078;2023-07-24T15:18:16;24.80;99.90
10083;DHT22;5080;48.528;8.078;2023-07-24T15:20:43;24.70;99.90
10083;DHT22;5080;48.528;8.078;2023-07-24T15:23:11;24.60;99.90
10083;DHT22;5080;48.528;8.078;2023-07-24T15:25:39;24.50;99.90
10083;DHT22;5080;48.528;8.078;2023-07-24T15:28:05;24.50;99.90
10083;DHT22;5080;48.528;8.078;2023-07-24T15:30:32;24.40;99.90
10083;DHT22;5080;48.528;8.078;2023-07-24T15:32:59;24.40;99.90
10083;DHT22;5080;48.528;8.078;2023-07-24T15:35:26;24.30;99.90
10083;DHT22;5080;48.528;8.078;2023-07-24T15:37:53;24.20;99.90
10083;DHT22;5080;48.528;8.078;2023-07-24T15:40:21;24.20;99.90
10083;DHT22;5080;48.528;8.078;2023-07-24T15:42:48;24.10;99.90
10083;DHT22;5080;48.528;8.078;2023-07-24T15:45:14;24.10;99.90
10083;DHT22;5080;48.528;8.078;2023-07-24T15:47:41;24.00;99.90